sensor_id;sensor_type;location;lat;lon;timestamp;pressure;altitude;pressure_sealevel;temperature;humidity
60019;BME280;45870;42.528;26.740;2022-10-04T00:01:50;99614.38;;;17.77;39.47
60019;BME280;45870;42.528;26.740;2022-10-04T00:09:46;99618.41;;;17.41;39.99
60019;BME280;45870;42.528;26.740;2022-10-04T00:14:44;99618.78;;;17.14;39.90
60019;BME280;45870;42.528;26.740;2022-10-04T00:17:12;99601.09;;;17.02;40.46
60019;BME280;45870;42.528;26.740;2022-10-04T00:19:47;99611.53;;;16.84;40.54
60019;BME280;45870;42.528;26.740;2022-10-04T00:22:21;99577.22;;;16.58;40.82
60019;BME280;45870;42.528;26.740;2022-10-04T00:27:39;99539.13;;;16.43;40.11
60019;BME280;45870;42.528;26.740;2022-10-04T00:30:15;99622.69;;;16.83;39.82
60019;BME280;45870;42.528;26.740;2022-10-04T00:33:00;99625.47;;;16.53;40.86
60019;BME280;45870;42.528;26.740;2022-10-04T00:37:56;99622.72;;;16.37;41.28
60019;BME280;45870;42.528;26.740;2022-10-04T00:40:27;99624.91;;;16.15;41.99
60019;BME280;45870;42.528;26.740;2022-10-04T00:43:01;99621.09;;;16.06;41.80
60019;BME280;45870;42.528;26.740;2022-10-04T00:45:59;99627.34;;;16.02;41.80
60019;BME280;45870;42.528;26.740;2022-10-04T00:48:43;99636.63;;;15.95;42.37
60019;BME280;45870;42.528;26.740;2022-10-04T00:51:14;99643.97;;;16.10;42.50
60019;BME280;45870;42.528;26.740;2022-10-04T00:53:48;99636.91;;;16.24;41.99
60019;BME280;45870;42.528;26.740;2022-10-04T00:56:24;99636.34;;;16.37;41.85
60019;BME280;45870;42.528;26.740;2022-10-04T01:01:20;99641.81;;;16.32;41.82
60019;BME280;45870;42.528;26.740;2022-10-04T01:03:49;99621.09;;;16.06;41.88
60019;BME280;45870;42.528;26.740;2022-10-04T01:06:18;99636.63;;;16.11;42.28
60019;BME280;45870;42.528;26.740;2022-10-04T01:08:51;99647.00;;;16.29;42.04
60019;BME280;45870;42.528;26.740;2022-10-04T01:14:12;99599.59;;;15.79;41.87
60019;BME280;45870;42.528;26.740;2022-10-04T01:16:43;99651.59;;;15.93;41.80
60019;BME280;45870;42.528;26.740;2022-10-04T01:24:35;99624.91;;;15.95;41.66
60019;BME280;45870;42.528;26.740;2022-10-04T01:27:01;99646.44;;;16.17;41.73
60019;BME280;45870;42.528;26.740;2022-10-04T01:29:30;99644.81;;;16.21;41.99
60019;BME280;45870;42.528;26.740;2022-10-04T01:31:59;99669.31;;;16.11;42.15
60019;BME280;45870;42.528;26.740;2022-10-04T01:34:27;99652.72;;;16.42;41.37
60019;BME280;45870;42.528;26.740;2022-10-04T01:36:55;99662.22;;;16.20;41.96
60019;BME280;45870;42.528;26.740;2022-10-04T01:39:24;99608.47;;;15.44;42.64
60019;BME280;45870;42.528;26.740;2022-10-04T01:42:12;99661.41;;;16.34;42.29
60019;BME280;45870;42.528;26.740;2022-10-04T01:50:33;99665.47;;;16.12;41.69
60019;BME280;45870;42.528;26.740;2022-10-04T01:55:36;99670.38;;;15.89;42.66
60019;BME280;45870;42.528;26.740;2022-10-04T01:58:16;99670.41;;;16.50;41.87
60019;BME280;45870;42.528;26.740;2022-10-04T02:03:31;99645.53;;;15.61;43.39
60019;BME280;45870;42.528;26.740;2022-10-04T02:06:02;99658.41;;;16.11;42.36
60019;BME280;45870;42.528;26.740;2022-10-04T02:08:32;99661.91;;;15.91;43.02
60019;BME280;45870;42.528;26.740;2022-10-04T02:11:00;99567.09;;;15.42;42.62
60019;BME280;45870;42.528;26.740;2022-10-04T02:13:33;99667.13;;;16.03;42.39
60019;BME280;45870;42.528;26.740;2022-10-04T02:16:01;99667.63;;;15.79;42.33
60019;BME280;45870;42.528;26.740;2022-10-04T02:18:28;99620.03;;;15.15;42.65
60019;BME280;45870;42.528;26.740;2022-10-04T02:20:56;99634.66;;;13.93;45.31
60019;BME280;45870;42.528;26.740;2022-10-04T02:23:23;99656.78;;;14.75;43.94
60019;BME280;45870;42.528;26.740;2022-10-04T02:25:49;99683.59;;;15.04;43.51
60019;BME280;45870;42.528;26.740;2022-10-04T02:28:16;99683.78;;;14.92;43.51
60019;BME280;45870;42.528;26.740;2022-10-04T02:30:46;99681.34;;;14.95;43.97
60019;BME280;45870;42.528;26.740;2022-10-04T02:33:37;99686.13;;;15.20;43.82
60019;BME280;45870;42.528;26.740;2022-10-04T02:36:03;99629.13;;;13.83;45.76
60019;BME280;45870;42.528;26.740;2022-10-04T02:38:36;99491.34;;;13.53;44.41
60019;BME280;45870;42.528;26.740;2022-10-04T02:44:07;99694.09;;;14.90;43.96
60019;BME280;45870;42.528;26.740;2022-10-04T02:49:30;99697.75;;;15.11;44.10
60019;BME280;45870;42.528;26.740;2022-10-04T02:52:06;99690.22;;;15.23;44.18
60019;BME280;45870;42.528;26.740;2022-10-04T02:54:41;99691.75;;;15.04;44.59
60019;BME280;45870;42.528;26.740;2022-10-04T02:57:14;99698.34;;;15.18;44.19
60019;BME280;45870;42.528;26.740;2022-10-04T02:59:42;99647.88;;;14.85;44.57
60019;BME280;45870;42.528;26.740;2022-10-04T03:02:28;99693.78;;;15.28;43.91
60019;BME280;45870;42.528;26.740;2022-10-04T03:04:59;99701.25;;;15.06;45.04
60019;BME280;45870;42.528;26.740;2022-10-04T03:07:26;99709.72;;;15.52;44.36
60019;BME280;45870;42.528;26.740;2022-10-04T03:09:52;99699.75;;;15.82;43.65
60019;BME280;45870;42.528;26.740;2022-10-04T03:12:18;99700.31;;;15.94;42.99
60019;BME280;45870;42.528;26.740;2022-10-04T03:14:45;99713.25;;;15.57;43.92
60019;BME280;45870;42.528;26.740;2022-10-04T03:17:13;99709.31;;;16.00;43.11
60019;BME280;45870;42.528;26.740;2022-10-04T03:19:40;99705.81;;;16.15;42.27
60019;BME280;45870;42.528;26.740;2022-10-04T03:22:09;99484.59;;;14.96;42.15
60019;BME280;45870;42.528;26.740;2022-10-04T03:24:43;99714.53;;;16.47;42.20
60019;BME280;45870;42.528;26.740;2022-10-04T03:27:30;99711.81;;;16.27;42.93
60019;BME280;45870;42.528;26.740;2022-10-04T03:29:58;99718.88;;;16.23;42.57
60019;BME280;45870;42.528;26.740;2022-10-04T03:32:24;99685.91;;;15.99;42.21
60019;BME280;45870;42.528;26.740;2022-10-04T03:34:55;99719.34;;;15.94;43.50
60019;BME280;45870;42.528;26.740;2022-10-04T03:37:22;99720.78;;;16.22;43.57
60019;BME280;45870;42.528;26.740;2022-10-04T03:39:51;99718.09;;;16.42;42.44
60019;BME280;45870;42.528;26.740;2022-10-04T03:42:28;99715.59;;;16.26;42.51
60019;BME280;45870;42.528;26.740;2022-10-04T03:45:04;99709.28;;;15.90;43.35
60019;BME280;45870;42.528;26.740;2022-10-04T03:47:34;99721.06;;;15.43;44.36
60019;BME280;45870;42.528;26.740;2022-10-04T03:50:10;99732.56;;;15.56;44.35
60019;BME280;45870;42.528;26.740;2022-10-04T03:52:42;99673.69;;;15.34;43.71
60019;BME280;45870;42.528;26.740;2022-10-04T03:55:10;99712.22;;;15.68;43.83
60019;BME280;45870;42.528;26.740;2022-10-04T03:57:38;99607.63;;;14.77;44.06
60019;BME280;45870;42.528;26.740;2022-10-04T04:00:05;99727.59;;;15.47;44.53
60019;BME280;45870;42.528;26.740;2022-10-04T04:02:57;99735.09;;;15.72;44.72
60019;BME280;45870;42.528;26.740;2022-10-04T04:10:38;99700.75;;;15.66;43.70
60019;BME280;45870;42.528;26.740;2022-10-04T04:15:55;99735.19;;;16.13;42.86
60019;BME280;45870;42.528;26.740;2022-10-04T04:18:22;99743.03;;;15.89;43.24
60019;BME280;45870;42.528;26.740;2022-10-04T04:20:50;99732.69;;;15.91;43.10
60019;BME280;45870;42.528;26.740;2022-10-04T04:23:23;99741.16;;;16.05;43.05
60019;BME280;45870;42.528;26.740;2022-10-04T04:25:54;99634.00;;;15.33;43.37
60019;BME280;45870;42.528;26.740;2022-10-04T04:28:33;99749.44;;;15.63;45.28
60019;BME280;45870;42.528;26.740;2022-10-04T04:31:05;99727.00;;;15.35;45.37
60019;BME280;45870;42.528;26.740;2022-10-04T04:33:45;99663.75;;;14.29;47.31
60019;BME280;45870;42.528;26.740;2022-10-04T04:36:14;99749.53;;;15.31;46.59
60019;BME280;45870;42.528;26.740;2022-10-04T04:38:42;99647.38;;;14.93;46.29
60019;BME280;45870;42.528;26.740;2022-10-04T04:41:28;99574.69;;;14.68;45.15
60019;BME280;45870;42.528;26.740;2022-10-04T04:43:56;99717.31;;;15.49;46.07
60019;BME280;45870;42.528;26.740;2022-10-04T04:46:23;99704.03;;;15.63;45.38
60019;BME280;45870;42.528;26.740;2022-10-04T04:48:53;99767.63;;;17.56;41.73
60019;BME280;45870;42.528;26.740;2022-10-04T04:51:24;99770.16;;;17.17;42.03
60019;BME280;45870;42.528;26.740;2022-10-04T04:53:52;99778.03;;;17.33;42.10
60019;BME280;45870;42.528;26.740;2022-10-04T04:56:22;99772.16;;;18.39;39.78
60019;BME280;45870;42.528;26.740;2022-10-04T04:58:51;99779.41;;;18.93;38.46
60019;BME280;45870;42.528;26.740;2022-10-04T05:01:22;99785.59;;;18.75;38.92
60019;BME280;45870;42.528;26.740;2022-10-04T05:04:04;99783.81;;;19.23;38.22
60019;BME280;45870;42.528;26.740;2022-10-04T05:06:32;99782.00;;;19.08;38.53
60019;BME280;45870;42.528;26.740;2022-10-04T05:08:59;99801.44;;;19.35;38.16
60019;BME280;45870;42.528;26.740;2022-10-04T05:11:30;99786.91;;;19.11;38.07
60019;BME280;45870;42.528;26.740;2022-10-04T05:14:08;99807.31;;;18.95;38.89
60019;BME280;45870;42.528;26.740;2022-10-04T05:16:42;99812.78;;;20.24;36.82
60019;BME280;45870;42.528;26.740;2022-10-04T05:19:28;99794.59;;;19.90;37.57
60019;BME280;45870;42.528;26.740;2022-10-04T05:21:57;99801.66;;;20.39;36.30
60019;BME280;45870;42.528;26.740;2022-10-04T05:24:31;99812.84;;;20.42;36.65
60019;BME280;45870;42.528;26.740;2022-10-04T05:27:03;99814.25;;;20.16;36.48
60019;BME280;45870;42.528;26.740;2022-10-04T05:29:31;99814.69;;;20.47;36.05
60019;BME280;45870;42.528;26.740;2022-10-04T05:32:08;99820.75;;;20.63;36.41
60019;BME280;45870;42.528;26.740;2022-10-04T05:34:40;99754.22;;;20.38;36.27
60019;BME280;45870;42.528;26.740;2022-10-04T05:37:28;99817.41;;;21.03;36.24
60019;BME280;45870;42.528;26.740;2022-10-04T05:42:44;99828.34;;;19.86;38.49
60019;BME280;45870;42.528;26.740;2022-10-04T05:45:15;99826.09;;;19.35;39.61
60019;BME280;45870;42.528;26.740;2022-10-04T05:47:42;99803.75;;;18.56;40.59
60019;BME280;45870;42.528;26.740;2022-10-04T05:50:16;99837.78;;;19.46;39.39
60019;BME280;45870;42.528;26.740;2022-10-04T05:52:43;99829.28;;;21.77;34.86
60019;BME280;45870;42.528;26.740;2022-10-04T05:55:35;99837.88;;;20.92;36.60
60019;BME280;45870;42.528;26.740;2022-10-04T06:03:30;99844.88;;;21.95;34.32
60019;BME280;45870;42.528;26.740;2022-10-04T06:06:04;99847.78;;;21.25;35.56
60019;BME280;45870;42.528;26.740;2022-10-04T06:09:03;99845.94;;;22.49;33.15
60019;BME280;45870;42.528;26.740;2022-10-04T06:11:56;99830.72;;;21.10;35.38
60019;BME280;45870;42.528;26.740;2022-10-04T06:17:10;99847.72;;;22.80;31.75
60019;BME280;45870;42.528;26.740;2022-10-04T06:22:22;99851.25;;;24.01;29.98
60019;BME280;45870;42.528;26.740;2022-10-04T06:25:01;99853.22;;;24.74;29.31
60019;BME280;45870;42.528;26.740;2022-10-04T06:27:30;99849.47;;;25.30;28.60
60019;BME280;45870;42.528;26.740;2022-10-04T06:30:13;99837.41;;;23.30;31.09
60019;BME280;45870;42.528;26.740;2022-10-04T06:32:54;99862.06;;;23.88;29.80
60019;BME280;45870;42.528;26.740;2022-10-04T06:49:20;99801.75;;;25.04;27.87
60019;BME280;45870;42.528;26.740;2022-10-04T07:02:57;99872.16;;;26.25;25.96
60019;BME280;45870;42.528;26.740;2022-10-04T07:08:22;99883.28;;;25.53;26.97
60019;BME280;45870;42.528;26.740;2022-10-04T07:11:02;99894.06;;;24.94;28.14
60019;BME280;45870;42.528;26.740;2022-10-04T07:13:39;99893.72;;;25.04;26.83
60019;BME280;45870;42.528;26.740;2022-10-04T07:16:24;99886.72;;;23.85;28.75
60019;BME280;45870;42.528;26.740;2022-10-04T07:24:22;99891.94;;;26.94;24.52
60019;BME280;45870;42.528;26.740;2022-10-04T07:26:51;99872.03;;;25.75;26.60
60019;BME280;45870;42.528;26.740;2022-10-04T07:29:27;99890.41;;;26.76;24.89
60019;BME280;45870;42.528;26.740;2022-10-04T07:34:50;99898.25;;;25.17;27.39
60019;BME280;45870;42.528;26.740;2022-10-04T07:37:18;99860.59;;;26.31;25.43
60019;BME280;45870;42.528;26.740;2022-10-04T07:39:54;99902.50;;;24.32;28.54
60019;BME280;45870;42.528;26.740;2022-10-04T07:45:24;99898.84;;;26.88;24.69
60019;BME280;45870;42.528;26.740;2022-10-04T07:48:01;99903.13;;;26.48;25.64
60019;BME280;45870;42.528;26.740;2022-10-04T07:50:35;99909.28;;;28.35;23.03
60019;BME280;45870;42.528;26.740;2022-10-04T07:53:22;99917.25;;;26.17;25.68
60019;BME280;45870;42.528;26.740;2022-10-04T07:56:09;99917.97;;;27.88;23.39
60019;BME280;45870;42.528;26.740;2022-10-04T08:06:59;99908.81;;;25.58;26.17
60019;BME280;45870;42.528;26.740;2022-10-04T08:15:13;99915.97;;;25.16;27.68
60019;BME280;45870;42.528;26.740;2022-10-04T08:17:57;99915.78;;;23.24;29.49
60019;BME280;45870;42.528;26.740;2022-10-04T08:25:55;99909.34;;;22.16;31.06
60019;BME280;45870;42.528;26.740;2022-10-04T08:31:56;99917.75;;;25.47;26.92
60019;BME280;45870;42.528;26.740;2022-10-04T08:48:39;99920.56;;;26.02;24.02
60019;BME280;45870;42.528;26.740;2022-10-04T09:03:13;99682.97;;;23.58;25.32
60019;BME280;45870;42.528;26.740;2022-10-04T09:17:49;99933.53;;;24.47;27.25
60019;BME280;45870;42.528;26.740;2022-10-04T09:26:03;99946.56;;;24.55;27.12
60019;BME280;45870;42.528;26.740;2022-10-04T09:34:30;99958.44;;;22.36;28.80
60019;BME280;45870;42.528;26.740;2022-10-04T09:37:16;99964.50;;;22.06;30.50
60019;BME280;45870;42.528;26.740;2022-10-04T09:42:43;99976.19;;;21.66;30.70
60019;BME280;45870;42.528;26.740;2022-10-04T09:48:21;99975.72;;;21.77;30.42
60019;BME280;45870;42.528;26.740;2022-10-04T09:59:42;99971.94;;;23.01;29.64
60019;BME280;45870;42.528;26.740;2022-10-04T10:05:27;99970.09;;;23.68;29.21
60019;BME280;45870;42.528;26.740;2022-10-04T10:14:32;99967.03;;;21.70;31.01
60019;BME280;45870;42.528;26.740;2022-10-04T10:17:12;99965.16;;;22.44;30.30
60019;BME280;45870;42.528;26.740;2022-10-04T10:28:05;99971.34;;;22.22;30.74
60019;BME280;45870;42.528;26.740;2022-10-04T10:33:51;99968.63;;;22.77;29.04
60019;BME280;45870;42.528;26.740;2022-10-04T10:36:32;99965.25;;;22.39;30.12
60019;BME280;45870;42.528;26.740;2022-10-04T11:22:50;99967.97;;;23.43;27.14
60019;BME280;45870;42.528;26.740;2022-10-04T11:28:16;99966.34;;;22.24;28.12
60019;BME280;45870;42.528;26.740;2022-10-04T11:34:06;99963.28;;;23.66;26.47
60019;BME280;45870;42.528;26.740;2022-10-04T11:36:58;99959.69;;;23.07;25.50
60019;BME280;45870;42.528;26.740;2022-10-04T11:42:09;99970.50;;;24.06;24.72
60019;BME280;45870;42.528;26.740;2022-10-04T11:44:53;99959.28;;;23.14;25.79
60019;BME280;45870;42.528;26.740;2022-10-04T11:47:38;99959.88;;;22.75;26.58
60019;BME280;45870;42.528;26.740;2022-10-04T11:50:49;99984.28;;;22.35;27.45
60019;BME280;45870;42.528;26.740;2022-10-04T11:53:37;99985.66;;;22.79;26.86
60019;BME280;45870;42.528;26.740;2022-10-04T11:59:19;99984.88;;;22.05;27.57
60019;BME280;45870;42.528;26.740;2022-10-04T12:05:06;99991.75;;;22.89;27.19
60019;BME280;45870;42.528;26.740;2022-10-04T12:10:38;99987.94;;;23.49;26.01
60019;BME280;45870;42.528;26.740;2022-10-04T12:33:20;99946.38;;;25.08;24.05
60019;BME280;45870;42.528;26.740;2022-10-04T12:36:09;99993.16;;;24.17;24.75
60019;BME280;45870;42.528;26.740;2022-10-04T12:50:26;99940.03;;;23.00;26.49
60019;BME280;45870;42.528;26.740;2022-10-04T12:53:11;99985.22;;;24.24;25.39
60019;BME280;45870;42.528;26.740;2022-10-04T12:55:58;100002.63;;;25.46;24.04
60019;BME280;45870;42.528;26.740;2022-10-04T13:01:40;99948.31;;;23.58;25.53
60019;BME280;45870;42.528;26.740;2022-10-04T13:15:40;100012.25;;;22.97;27.07
60019;BME280;45870;42.528;26.740;2022-10-04T13:21:05;100026.66;;;23.88;25.63
60019;BME280;45870;42.528;26.740;2022-10-04T13:24:11;100015.97;;;23.64;26.09
60019;BME280;45870;42.528;26.740;2022-10-04T13:26:53;100014.41;;;24.16;25.42
60019;BME280;45870;42.528;26.740;2022-10-04T13:29:36;100011.81;;;24.90;24.36
60019;BME280;45870;42.528;26.740;2022-10-04T13:32:24;99998.47;;;24.53;24.61
60019;BME280;45870;42.528;26.740;2022-10-04T13:40:31;100024.50;;;26.28;22.30
60019;BME280;45870;42.528;26.740;2022-10-04T13:54:17;100020.66;;;27.47;21.06
60019;BME280;45870;42.528;26.740;2022-10-04T13:59:41;99860.59;;;25.85;21.77
60019;BME280;45870;42.528;26.740;2022-10-04T14:02:25;100030.41;;;26.10;22.48
60019;BME280;45870;42.528;26.740;2022-10-04T14:11:25;100041.44;;;25.15;23.90
60019;BME280;45870;42.528;26.740;2022-10-04T14:19:52;100049.81;;;23.43;26.27
60019;BME280;45870;42.528;26.740;2022-10-04T14:34:00;100058.16;;;22.56;26.97
60019;BME280;45870;42.528;26.740;2022-10-04T14:36:47;100057.31;;;24.09;25.23
60019;BME280;45870;42.528;26.740;2022-10-04T14:39:43;100070.75;;;22.89;27.20
60019;BME280;45870;42.528;26.740;2022-10-04T14:56:42;100080.94;;;23.43;25.71
60019;BME280;45870;42.528;26.740;2022-10-04T15:01:48;100039.41;;;22.30;27.57
60019;BME280;45870;42.528;26.740;2022-10-04T15:07:30;100074.41;;;22.98;26.86
60019;BME280;45870;42.528;26.740;2022-10-04T15:12:54;100085.97;;;22.86;27.71
60019;BME280;45870;42.528;26.740;2022-10-04T15:15:39;100089.75;;;22.45;28.31
60019;BME280;45870;42.528;26.740;2022-10-04T15:23:44;100104.34;;;21.57;29.22
60019;BME280;45870;42.528;26.740;2022-10-04T15:34:39;100096.94;;;21.95;28.48
60019;BME280;45870;42.528;26.740;2022-10-04T15:37:13;100119.81;;;21.90;28.70
60019;BME280;45870;42.528;26.740;2022-10-04T15:42:38;100120.00;;;21.56;29.37
60019;BME280;45870;42.528;26.740;2022-10-04T15:58:34;100153.13;;;22.53;28.06
60019;BME280;45870;42.528;26.740;2022-10-04T16:01:35;100151.41;;;23.71;26.49
60019;BME280;45870;42.528;26.740;2022-10-04T16:06:53;100160.41;;;23.99;26.16
60019;BME280;45870;42.528;26.740;2022-10-04T16:23:41;100193.75;;;21.86;29.71
60019;BME280;45870;42.528;26.740;2022-10-04T16:37:04;100224.03;;;22.05;29.91
60019;BME280;45870;42.528;26.740;2022-10-04T16:42:58;100229.22;;;22.25;29.41
60019;BME280;45870;42.528;26.740;2022-10-04T16:58:49;100251.59;;;23.89;26.97
60019;BME280;45870;42.528;26.740;2022-10-04T17:06:31;100255.44;;;23.06;28.25
60019;BME280;45870;42.528;26.740;2022-10-04T17:09:13;100257.97;;;22.70;28.59
60019;BME280;45870;42.528;26.740;2022-10-04T17:12:05;100086.28;;;21.51;29.01
60019;BME280;45870;42.528;26.740;2022-10-04T17:17:34;100095.94;;;20.82;29.86
60019;BME280;45870;42.528;26.740;2022-10-04T17:31:45;100298.78;;;21.60;31.03
60019;BME280;45870;42.528;26.740;2022-10-04T17:48:31;100293.38;;;20.09;34.97
60019;BME280;45870;42.528;26.740;2022-10-04T17:57:12;100327.72;;;22.42;30.80
60019;BME280;45870;42.528;26.740;2022-10-04T17:59:44;100326.00;;;22.46;30.70
60019;BME280;45870;42.528;26.740;2022-10-04T18:02:18;100329.69;;;23.11;29.68
60019;BME280;45870;42.528;26.740;2022-10-04T18:05:01;100334.22;;;22.70;30.00
60019;BME280;45870;42.528;26.740;2022-10-04T18:07:37;100331.47;;;23.34;29.44
60019;BME280;45870;42.528;26.740;2022-10-04T18:10:27;100336.56;;;23.73;28.86
60019;BME280;45870;42.528;26.740;2022-10-04T18:13:00;100323.41;;;23.70;28.55
60019;BME280;45870;42.528;26.740;2022-10-04T18:18:38;100313.72;;;23.40;28.70
60019;BME280;45870;42.528;26.740;2022-10-04T18:21:05;100351.69;;;22.79;30.08
60019;BME280;45870;42.528;26.740;2022-10-04T18:23:37;100320.44;;;21.90;31.59
60019;BME280;45870;42.528;26.740;2022-10-04T18:26:16;100353.00;;;23.00;30.26
60019;BME280;45870;42.528;26.740;2022-10-04T18:28:43;100354.34;;;22.65;30.50
60019;BME280;45870;42.528;26.740;2022-10-04T18:33:50;100279.78;;;22.67;30.18
60019;BME280;45870;42.528;26.740;2022-10-04T18:36:27;100355.28;;;23.12;30.21
60019;BME280;45870;42.528;26.740;2022-10-04T18:41:34;100369.28;;;22.59;30.91
60019;BME280;45870;42.528;26.740;2022-10-04T18:44:29;100366.13;;;22.28;31.19
60019;BME280;45870;42.528;26.740;2022-10-04T18:47:15;100209.31;;;21.01;31.90
60019;BME280;45870;42.528;26.740;2022-10-04T18:49:47;100370.81;;;21.57;32.30
60019;BME280;45870;42.528;26.740;2022-10-04T18:52:31;100374.88;;;22.12;31.46
60019;BME280;45870;42.528;26.740;2022-10-04T18:55:28;100373.31;;;22.06;31.60
60019;BME280;45870;42.528;26.740;2022-10-04T19:01:38;100343.56;;;21.84;31.48
60019;BME280;45870;42.528;26.740;2022-10-04T19:09:44;100387.84;;;20.81;34.08
60019;BME280;45870;42.528;26.740;2022-10-04T19:12:35;100388.28;;;21.37;32.45
60019;BME280;45870;42.528;26.740;2022-10-04T19:15:41;100388.41;;;21.22;32.28
60019;BME280;45870;42.528;26.740;2022-10-04T19:18:28;100402.84;;;20.93;33.18
60019;BME280;45870;42.528;26.740;2022-10-04T19:21:03;100405.06;;;20.48;32.96
60019;BME280;45870;42.528;26.740;2022-10-04T19:24:12;100402.34;;;20.48;33.97
60019;BME280;45870;42.528;26.740;2022-10-04T19:26:58;100413.47;;;19.92;35.23
60019;BME280;45870;42.528;26.740;2022-10-04T19:29:34;100408.19;;;20.11;34.54
60019;BME280;45870;42.528;26.740;2022-10-04T19:43:24;100426.09;;;19.07;36.01
60019;BME280;45870;42.528;26.740;2022-10-04T19:46:15;100431.00;;;18.85;36.10
60019;BME280;45870;42.528;26.740;2022-10-04T19:48:49;100427.69;;;18.93;35.62
60019;BME280;45870;42.528;26.740;2022-10-04T19:51:27;100438.31;;;18.69;35.60
60019;BME280;45870;42.528;26.740;2022-10-04T19:54:12;100437.38;;;18.38;36.57
60019;BME280;45870;42.528;26.740;2022-10-04T19:56:47;100435.97;;;18.26;37.05
60019;BME280;45870;42.528;26.740;2022-10-04T19:59:21;100431.19;;;18.06;37.05
60019;BME280;45870;42.528;26.740;2022-10-04T20:01:49;100413.16;;;17.58;37.82
60019;BME280;45870;42.528;26.740;2022-10-04T20:04:17;100435.97;;;17.79;38.23
60019;BME280;45870;42.528;26.740;2022-10-04T20:07:17;100438.16;;;17.45;39.15
60019;BME280;45870;42.528;26.740;2022-10-04T20:09:52;100445.53;;;17.81;38.11
60019;BME280;45870;42.528;26.740;2022-10-04T20:12:39;100442.84;;;17.86;37.65
60019;BME280;45870;42.528;26.740;2022-10-04T20:17:53;100401.47;;;17.31;37.84
60019;BME280;45870;42.528;26.740;2022-10-04T20:23:05;100451.00;;;17.49;38.05
60019;BME280;45870;42.528;26.740;2022-10-04T20:28:10;100459.88;;;17.62;37.49
60019;BME280;45870;42.528;26.740;2022-10-04T20:30:57;100467.38;;;17.81;37.44
60019;BME280;45870;42.528;26.740;2022-10-04T20:36:01;100464.09;;;18.26;36.54
60019;BME280;45870;42.528;26.740;2022-10-04T20:44:49;100478.53;;;17.75;38.42
60019;BME280;45870;42.528;26.740;2022-10-04T20:49:54;100478.56;;;18.84;35.84
60019;BME280;45870;42.528;26.740;2022-10-04T20:52:29;100475.34;;;19.02;35.57
60019;BME280;45870;42.528;26.740;2022-10-04T20:54:56;100434.50;;;18.75;36.10
60019;BME280;45870;42.528;26.740;2022-10-04T20:57:23;100471.50;;;19.08;36.18
60019;BME280;45870;42.528;26.740;2022-10-04T20:59:53;100464.94;;;19.04;35.44
60019;BME280;45870;42.528;26.740;2022-10-04T21:02:21;100473.88;;;18.69;35.66
60019;BME280;45870;42.528;26.740;2022-10-04T21:04:48;100476.63;;;18.74;36.28
60019;BME280;45870;42.528;26.740;2022-10-04T21:07:21;100465.88;;;18.06;37.47
60019;BME280;45870;42.528;26.740;2022-10-04T21:09:48;100474.66;;;18.60;36.38
60019;BME280;45870;42.528;26.740;2022-10-04T21:12:38;100479.81;;;18.04;37.89
60019;BME280;45870;42.528;26.740;2022-10-04T21:15:17;100475.41;;;18.50;36.82
60019;BME280;45870;42.528;26.740;2022-10-04T21:20:45;100487.91;;;18.31;37.32
60019;BME280;45870;42.528;26.740;2022-10-04T21:23:29;100479.78;;;18.46;36.81
60019;BME280;45870;42.528;26.740;2022-10-04T21:26:28;100443.06;;;16.89;38.77
60019;BME280;45870;42.528;26.740;2022-10-04T21:28:55;100487.94;;;17.04;39.28
60019;BME280;45870;42.528;26.740;2022-10-04T21:31:22;100487.88;;;17.52;38.50
60019;BME280;45870;42.528;26.740;2022-10-04T21:33:48;100425.44;;;17.29;37.94
60019;BME280;45870;42.528;26.740;2022-10-04T21:36:14;100483.91;;;17.65;38.19
60019;BME280;45870;42.528;26.740;2022-10-04T21:38:40;100487.06;;;17.52;39.03
60019;BME280;45870;42.528;26.740;2022-10-04T21:41:06;100492.19;;;17.75;38.70
60019;BME280;45870;42.528;26.740;2022-10-04T21:43:32;100491.06;;;17.71;38.56
60019;BME280;45870;42.528;26.740;2022-10-04T21:45:58;100493.06;;;17.54;38.43
60019;BME280;45870;42.528;26.740;2022-10-04T21:48:24;100496.56;;;17.49;38.12
60019;BME280;45870;42.528;26.740;2022-10-04T21:50:51;100492.16;;;17.43;38.46
60019;BME280;45870;42.528;26.740;2022-10-04T21:53:18;100490.22;;;16.85;40.40
60019;BME280;45870;42.528;26.740;2022-10-04T21:55:44;100483.56;;;17.29;39.27
60019;BME280;45870;42.528;26.740;2022-10-04T21:58:10;100483.03;;;17.59;38.35
60019;BME280;45870;42.528;26.740;2022-10-04T22:00:36;100478.97;;;17.62;38.00
60019;BME280;45870;42.528;26.740;2022-10-04T22:03:02;100490.59;;;17.20;38.97
60019;BME280;45870;42.528;26.740;2022-10-04T22:05:28;100484.34;;;17.25;39.02
60019;BME280;45870;42.528;26.740;2022-10-04T22:07:54;100322.88;;;16.16;39.38
60019;BME280;45870;42.528;26.740;2022-10-04T22:10:19;100492.44;;;17.15;38.81
60019;BME280;45870;42.528;26.740;2022-10-04T22:12:45;100503.38;;;16.93;39.25
60019;BME280;45870;42.528;26.740;2022-10-04T22:15:11;100496.44;;;16.80;39.95
60019;BME280;45870;42.528;26.740;2022-10-04T22:17:36;100472.75;;;16.86;39.40
60019;BME280;45870;42.528;26.740;2022-10-04T22:20:03;100495.38;;;16.81;39.78
60019;BME280;45870;42.528;26.740;2022-10-04T22:22:29;100502.00;;;17.17;38.84
60019;BME280;45870;42.528;26.740;2022-10-04T22:24:56;100506.06;;;16.88;39.27
60019;BME280;45870;42.528;26.740;2022-10-04T22:27:28;100437.72;;;16.51;39.42
60019;BME280;45870;42.528;26.740;2022-10-04T22:29:55;100502.56;;;16.92;39.62
60019;BME280;45870;42.528;26.740;2022-10-04T22:32:24;100495.22;;;16.71;39.56
60019;BME280;45870;42.528;26.740;2022-10-04T22:34:51;100496.13;;;16.77;39.18
60019;BME280;45870;42.528;26.740;2022-10-04T22:37:23;100497.56;;;16.84;39.43